sensor_id;sensor_type;location;lat;lon;timestamp;P1;durP1;ratioP1;P2;durP2;ratioP2
10882;SDS011;5494;51.796;10.952;2023-08-08T00:02:02;3.40;;;1.90;;
10882;SDS011;5494;51.796;10.952;2023-08-08T00:04:31;3.00;;;2.23;;
10882;SDS011;5494;51.796;10.952;2023-08-08T00:07:00;2.60;;;1.93;;
10882;SDS011;5494;51.796;10.952;2023-08-08T00:09:28;4.70;;;2.17;;
10882;SDS011;5494;51.796;10.952;2023-08-08T00:11:56;3.10;;;2.00;;
10882;SDS011;5494;51.796;10.952;2023-08-08T00:14:25;2.67;;;1.70;;
10882;SDS011;5494;51.796;10.952;2023-08-08T00:16:54;3.43;;;1.90;;
10882;SDS011;5494;51.796;10.952;2023-08-08T00:19:23;2.70;;;1.73;;
10882;SDS011;5494;51.796;10.952;2023-08-08T00:21:51;2.53;;;2.00;;
10882;SDS011;5494;51.796;10.952;2023-08-08T00:24:19;3.13;;;1.67;;
10882;SDS011;5494;51.796;10.952;2023-08-08T00:26:47;3.17;;;2.20;;
10882;SDS011;5494;51.796;10.952;2023-08-08T00:29:16;3.97;;;1.80;;
10882;SDS011;5494;51.796;10.952;2023-08-08T00:31:44;2.93;;;1.90;;
10882;SDS011;5494;51.796;10.952;2023-08-08T00:34:16;2.90;;;2.03;;
10882;SDS011;5494;51.796;10.952;2023-08-08T00:36:44;2.73;;;1.83;;
10882;SDS011;5494;51.796;10.952;2023-08-08T00:39:12;2.77;;;2.00;;
10882;SDS011;5494;51.796;10.952;2023-08-08T00:41:40;3.87;;;1.97;;
10882;SDS011;5494;51.796;10.952;2023-08-08T00:44:09;2.23;;;1.77;;
10882;SDS011;5494;51.796;10.952;2023-08-08T00:46:37;3.83;;;1.90;;
10882;SDS011;5494;51.796;10.952;2023-08-08T00:49:06;3.00;;;2.13;;
10882;SDS011;5494;51.796;10.952;2023-08-08T00:51:36;4.40;;;2.13;;
10882;SDS011;5494;51.796;10.952;2023-08-08T00:54:05;2.70;;;2.00;;
10882;SDS011;5494;51.796;10.952;2023-08-08T00:56:34;6.20;;;2.03;;
10882;SDS011;5494;51.796;10.952;2023-08-08T00:59:04;3.13;;;1.43;;
10882;SDS011;5494;51.796;10.952;2023-08-08T01:01:36;2.10;;;1.70;;
10882;SDS011;5494;51.796;10.952;2023-08-08T01:04:04;4.13;;;1.90;;
10882;SDS011;5494;51.796;10.952;2023-08-08T01:06:36;2.33;;;1.97;;
10882;SDS011;5494;51.796;10.952;2023-08-08T01:09:13;2.40;;;1.70;;
10882;SDS011;5494;51.796;10.952;2023-08-08T01:11:54;2.90;;;1.83;;
10882;SDS011;5494;51.796;10.952;2023-08-08T01:14:24;1.67;;;1.47;;
10882;SDS011;5494;51.796;10.952;2023-08-08T01:16:57;3.10;;;1.40;;
10882;SDS011;5494;51.796;10.952;2023-08-08T01:19:27;2.87;;;1.60;;
10882;SDS011;5494;51.796;10.952;2023-08-08T01:22:01;3.77;;;1.67;;
10882;SDS011;5494;51.796;10.952;2023-08-08T01:24:35;3.00;;;1.60;;
10882;SDS011;5494;51.796;10.952;2023-08-08T01:27:04;1.43;;;1.33;;
10882;SDS011;5494;51.796;10.952;2023-08-08T01:29:33;3.00;;;1.60;;
10882;SDS011;5494;51.796;10.952;2023-08-08T01:32:05;3.23;;;1.60;;
10882;SDS011;5494;51.796;10.952;2023-08-08T01:34:35;1.77;;;1.53;;
10882;SDS011;5494;51.796;10.952;2023-08-08T01:37:07;3.23;;;1.70;;
10882;SDS011;5494;51.796;10.952;2023-08-08T01:39:45;2.57;;;1.60;;
10882;SDS011;5494;51.796;10.952;2023-08-08T01:42:16;4.57;;;1.47;;
10882;SDS011;5494;51.796;10.952;2023-08-08T01:44:48;4.90;;;1.77;;
10882;SDS011;5494;51.796;10.952;2023-08-08T01:47:17;2.00;;;1.50;;
10882;SDS011;5494;51.796;10.952;2023-08-08T01:49:45;3.57;;;1.80;;
10882;SDS011;5494;51.796;10.952;2023-08-08T01:52:13;1.80;;;1.60;;
10882;SDS011;5494;51.796;10.952;2023-08-08T01:54:41;3.23;;;1.73;;
10882;SDS011;5494;51.796;10.952;2023-08-08T01:57:12;2.27;;;1.70;;
10882;SDS011;5494;51.796;10.952;2023-08-08T01:59:41;3.60;;;1.90;;
10882;SDS011;5494;51.796;10.952;2023-08-08T02:02:09;3.13;;;1.97;;
10882;SDS011;5494;51.796;10.952;2023-08-08T02:04:37;2.47;;;1.80;;
10882;SDS011;5494;51.796;10.952;2023-08-08T02:07:05;7.63;;;2.20;;
10882;SDS011;5494;51.796;10.952;2023-08-08T02:09:33;4.20;;;1.90;;
10882;SDS011;5494;51.796;10.952;2023-08-08T02:12:01;2.57;;;2.07;;
10882;SDS011;5494;51.796;10.952;2023-08-08T02:14:33;2.57;;;2.00;;
10882;SDS011;5494;51.796;10.952;2023-08-08T02:17:01;4.03;;;1.87;;
10882;SDS011;5494;51.796;10.952;2023-08-08T02:19:30;2.97;;;1.83;;
10882;SDS011;5494;51.796;10.952;2023-08-08T02:21:58;2.73;;;1.67;;
10882;SDS011;5494;51.796;10.952;2023-08-08T02:24:29;2.53;;;1.83;;
10882;SDS011;5494;51.796;10.952;2023-08-08T02:26:57;2.87;;;1.87;;
10882;SDS011;5494;51.796;10.952;2023-08-08T02:29:25;3.40;;;1.90;;
10882;SDS011;5494;51.796;10.952;2023-08-08T02:31:55;2.47;;;1.80;;
10882;SDS011;5494;51.796;10.952;2023-08-08T02:34:25;3.33;;;1.90;;
10882;SDS011;5494;51.796;10.952;2023-08-08T02:36:54;2.80;;;1.83;;
10882;SDS011;5494;51.796;10.952;2023-08-08T02:39:22;2.77;;;1.90;;
10882;SDS011;5494;51.796;10.952;2023-08-08T02:41:50;2.27;;;2.07;;
10882;SDS011;5494;51.796;10.952;2023-08-08T02:44:19;2.47;;;2.07;;
10882;SDS011;5494;51.796;10.952;2023-08-08T02:46:48;5.13;;;2.00;;
10882;SDS011;5494;51.796;10.952;2023-08-08T02:49:18;2.63;;;2.13;;
10882;SDS011;5494;51.796;10.952;2023-08-08T02:51:46;3.90;;;1.97;;
10882;SDS011;5494;51.796;10.952;2023-08-08T02:54:15;2.40;;;2.17;;
10882;SDS011;5494;51.796;10.952;2023-08-08T02:56:43;3.43;;;2.50;;
10882;SDS011;5494;51.796;10.952;2023-08-08T02:59:12;2.20;;;2.00;;
10882;SDS011;5494;51.796;10.952;2023-08-08T03:01:40;3.87;;;2.33;;
10882;SDS011;5494;51.796;10.952;2023-08-08T03:04:15;6.70;;;2.73;;
10882;SDS011;5494;51.796;10.952;2023-08-08T03:06:45;3.60;;;2.40;;
10882;SDS011;5494;51.796;10.952;2023-08-08T03:09:14;3.03;;;2.50;;
10882;SDS011;5494;51.796;10.952;2023-08-08T03:11:43;3.77;;;2.37;;
10882;SDS011;5494;51.796;10.952;2023-08-08T03:14:41;5.13;;;2.73;;
10882;SDS011;5494;51.796;10.952;2023-08-08T03:17:18;4.57;;;2.80;;
10882;SDS011;5494;51.796;10.952;2023-08-08T03:19:59;6.43;;;3.17;;
10882;SDS011;5494;51.796;10.952;2023-08-08T03:22:56;5.03;;;3.17;;
10882;SDS011;5494;51.796;10.952;2023-08-08T03:25:31;3.27;;;2.97;;
10882;SDS011;5494;51.796;10.952;2023-08-08T03:28:12;5.60;;;3.13;;
10882;SDS011;5494;51.796;10.952;2023-08-08T03:31:00;4.50;;;2.80;;
10882;SDS011;5494;51.796;10.952;2023-08-08T03:33:42;3.60;;;3.20;;
10882;SDS011;5494;51.796;10.952;2023-08-08T03:36:17;4.40;;;3.23;;
10882;SDS011;5494;51.796;10.952;2023-08-08T03:39:15;5.43;;;3.50;;
10882;SDS011;5494;51.796;10.952;2023-08-08T03:41:56;5.07;;;4.00;;
10882;SDS011;5494;51.796;10.952;2023-08-08T03:44:40;4.67;;;3.70;;
10882;SDS011;5494;51.796;10.952;2023-08-08T03:47:22;7.17;;;3.90;;
10882;SDS011;5494;51.796;10.952;2023-08-08T03:50:28;4.27;;;3.77;;
10882;SDS011;5494;51.796;10.952;2023-08-08T03:53:11;4.83;;;3.70;;
10882;SDS011;5494;51.796;10.952;2023-08-08T03:55:58;7.93;;;3.60;;
10882;SDS011;5494;51.796;10.952;2023-08-08T03:58:49;4.13;;;3.40;;
10882;SDS011;5494;51.796;10.952;2023-08-08T04:01:35;5.47;;;3.83;;
10882;SDS011;5494;51.796;10.952;2023-08-08T04:04:18;5.80;;;3.80;;
10882;SDS011;5494;51.796;10.952;2023-08-08T04:07:10;4.30;;;3.30;;
10882;SDS011;5494;51.796;10.952;2023-08-08T04:09:54;3.80;;;2.97;;
10882;SDS011;5494;51.796;10.952;2023-08-08T04:12:33;4.17;;;2.93;;
10882;SDS011;5494;51.796;10.952;2023-08-08T04:15:28;3.63;;;2.80;;
10882;SDS011;5494;51.796;10.952;2023-08-08T04:18:14;4.87;;;3.07;;
10882;SDS011;5494;51.796;10.952;2023-08-08T04:20:56;3.37;;;2.57;;
10882;SDS011;5494;51.796;10.952;2023-08-08T04:23:51;7.20;;;2.97;;
10882;SDS011;5494;51.796;10.952;2023-08-08T04:26:40;3.00;;;2.70;;
10882;SDS011;5494;51.796;10.952;2023-08-08T04:29:16;3.83;;;2.40;;
10882;SDS011;5494;51.796;10.952;2023-08-08T04:31:59;3.20;;;2.60;;
10882;SDS011;5494;51.796;10.952;2023-08-08T04:34:36;2.43;;;2.20;;
10882;SDS011;5494;51.796;10.952;2023-08-08T04:40:26;3.27;;;2.20;;
10882;SDS011;5494;51.796;10.952;2023-08-08T04:43:09;4.73;;;2.50;;
10882;SDS011;5494;51.796;10.952;2023-08-08T04:46:04;3.77;;;2.60;;
10882;SDS011;5494;51.796;10.952;2023-08-08T04:48:52;3.83;;;2.20;;
10882;SDS011;5494;51.796;10.952;2023-08-08T04:51:54;4.37;;;2.10;;
10882;SDS011;5494;51.796;10.952;2023-08-08T04:54:45;3.67;;;2.67;;
10882;SDS011;5494;51.796;10.952;2023-08-08T04:57:24;3.07;;;1.93;;
10882;SDS011;5494;51.796;10.952;2023-08-08T05:00:11;3.10;;;2.30;;
10882;SDS011;5494;51.796;10.952;2023-08-08T05:03:13;4.17;;;2.43;;
10882;SDS011;5494;51.796;10.952;2023-08-08T05:05:43;2.77;;;2.17;;
10882;SDS011;5494;51.796;10.952;2023-08-08T05:08:25;2.77;;;1.73;;
10882;SDS011;5494;51.796;10.952;2023-08-08T05:11:00;4.30;;;2.10;;
10882;SDS011;5494;51.796;10.952;2023-08-08T05:13:49;4.00;;;2.23;;
10882;SDS011;5494;51.796;10.952;2023-08-08T05:16:30;2.20;;;1.87;;
10882;SDS011;5494;51.796;10.952;2023-08-08T05:19:08;2.70;;;1.63;;
10882;SDS011;5494;51.796;10.952;2023-08-08T05:22:03;2.57;;;1.93;;
10882;SDS011;5494;51.796;10.952;2023-08-08T05:24:46;2.80;;;2.03;;
10882;SDS011;5494;51.796;10.952;2023-08-08T05:27:23;2.60;;;2.00;;
10882;SDS011;5494;51.796;10.952;2023-08-08T05:30:15;4.93;;;2.33;;
10882;SDS011;5494;51.796;10.952;2023-08-08T05:32:55;4.17;;;2.47;;
10882;SDS011;5494;51.796;10.952;2023-08-08T05:35:46;2.20;;;1.63;;
10882;SDS011;5494;51.796;10.952;2023-08-08T05:38:29;3.40;;;1.90;;
10882;SDS011;5494;51.796;10.952;2023-08-08T05:41:14;2.33;;;2.00;;
10882;SDS011;5494;51.796;10.952;2023-08-08T05:44:04;3.30;;;2.20;;
10882;SDS011;5494;51.796;10.952;2023-08-08T05:46:52;3.33;;;1.70;;
10882;SDS011;5494;51.796;10.952;2023-08-08T05:49:27;6.00;;;1.60;;
10882;SDS011;5494;51.796;10.952;2023-08-08T05:52:11;2.27;;;1.83;;
10882;SDS011;5494;51.796;10.952;2023-08-08T05:54:49;2.87;;;1.60;;
10882;SDS011;5494;51.796;10.952;2023-08-08T05:57:33;3.50;;;1.70;;
10882;SDS011;5494;51.796;10.952;2023-08-08T06:00:06;2.20;;;2.00;;
10882;SDS011;5494;51.796;10.952;2023-08-08T06:02:46;3.70;;;2.20;;
10882;SDS011;5494;51.796;10.952;2023-08-08T06:05:23;5.77;;;2.40;;
10882;SDS011;5494;51.796;10.952;2023-08-08T06:07:58;3.13;;;2.30;;
10882;SDS011;5494;51.796;10.952;2023-08-08T06:10:42;4.10;;;2.50;;
10882;SDS011;5494;51.796;10.952;2023-08-08T06:13:25;2.93;;;2.60;;
10882;SDS011;5494;51.796;10.952;2023-08-08T06:16:08;3.70;;;2.63;;
10882;SDS011;5494;51.796;10.952;2023-08-08T06:19:10;2.57;;;2.20;;
10882;SDS011;5494;51.796;10.952;2023-08-08T06:21:51;2.40;;;2.20;;
10882;SDS011;5494;51.796;10.952;2023-08-08T06:24:31;4.20;;;2.63;;
10882;SDS011;5494;51.796;10.952;2023-08-08T06:27:15;4.70;;;3.10;;
10882;SDS011;5494;51.796;10.952;2023-08-08T06:30:13;4.97;;;2.40;;
10882;SDS011;5494;51.796;10.952;2023-08-08T06:33:02;6.37;;;3.47;;
10882;SDS011;5494;51.796;10.952;2023-08-08T06:35:38;2.97;;;2.63;;
10882;SDS011;5494;51.796;10.952;2023-08-08T06:38:25;3.77;;;2.50;;
10882;SDS011;5494;51.796;10.952;2023-08-08T06:41:05;4.73;;;2.53;;
10882;SDS011;5494;51.796;10.952;2023-08-08T06:43:44;3.57;;;2.40;;
10882;SDS011;5494;51.796;10.952;2023-08-08T06:46:27;3.93;;;2.63;;
10882;SDS011;5494;51.796;10.952;2023-08-08T06:49:17;3.63;;;2.70;;
10882;SDS011;5494;51.796;10.952;2023-08-08T06:52:14;2.57;;;2.03;;
10882;SDS011;5494;51.796;10.952;2023-08-08T06:54:57;2.57;;;2.37;;
10882;SDS011;5494;51.796;10.952;2023-08-08T06:58:03;3.27;;;2.30;;
10882;SDS011;5494;51.796;10.952;2023-08-08T07:00:58;3.17;;;2.87;;
10882;SDS011;5494;51.796;10.952;2023-08-08T07:03:51;3.50;;;2.70;;
10882;SDS011;5494;51.796;10.952;2023-08-08T07:06:42;4.37;;;2.50;;
10882;SDS011;5494;51.796;10.952;2023-08-08T07:09:19;3.60;;;2.50;;
10882;SDS011;5494;51.796;10.952;2023-08-08T07:11:59;3.57;;;2.50;;
10882;SDS011;5494;51.796;10.952;2023-08-08T07:14:40;4.20;;;2.70;;
10882;SDS011;5494;51.796;10.952;2023-08-08T07:17:36;4.07;;;2.30;;
10882;SDS011;5494;51.796;10.952;2023-08-08T07:20:22;2.10;;;1.83;;
10882;SDS011;5494;51.796;10.952;2023-08-08T07:23:04;4.67;;;2.00;;
10882;SDS011;5494;51.796;10.952;2023-08-08T07:25:37;4.93;;;2.10;;
10882;SDS011;5494;51.796;10.952;2023-08-08T07:28:22;2.67;;;2.00;;
10882;SDS011;5494;51.796;10.952;2023-08-08T07:31:13;4.83;;;2.40;;
10882;SDS011;5494;51.796;10.952;2023-08-08T07:33:54;1.90;;;1.70;;
10882;SDS011;5494;51.796;10.952;2023-08-08T07:36:52;3.47;;;2.20;;
10882;SDS011;5494;51.796;10.952;2023-08-08T07:39:30;4.00;;;2.20;;
10882;SDS011;5494;51.796;10.952;2023-08-08T07:42:19;3.40;;;2.33;;
10882;SDS011;5494;51.796;10.952;2023-08-08T07:45:14;4.20;;;1.83;;
10882;SDS011;5494;51.796;10.952;2023-08-08T07:47:55;2.83;;;2.23;;
10882;SDS011;5494;51.796;10.952;2023-08-08T07:50:27;3.03;;;2.77;;
10882;SDS011;5494;51.796;10.952;2023-08-08T07:53:24;3.73;;;2.20;;
10882;SDS011;5494;51.796;10.952;2023-08-08T07:55:58;3.93;;;2.53;;
10882;SDS011;5494;51.796;10.952;2023-08-08T07:58:55;2.80;;;2.60;;
10882;SDS011;5494;51.796;10.952;2023-08-08T08:01:37;4.20;;;2.37;;
10882;SDS011;5494;51.796;10.952;2023-08-08T08:04:15;2.83;;;1.80;;
10882;SDS011;5494;51.796;10.952;2023-08-08T08:06:48;2.63;;;2.30;;
10882;SDS011;5494;51.796;10.952;2023-08-08T08:12:33;2.80;;;2.00;;
10882;SDS011;5494;51.796;10.952;2023-08-08T08:15:26;2.83;;;2.13;;
10882;SDS011;5494;51.796;10.952;2023-08-08T08:18:11;3.27;;;2.20;;
10882;SDS011;5494;51.796;10.952;2023-08-08T08:20:56;8.40;;;2.33;;
10882;SDS011;5494;51.796;10.952;2023-08-08T08:23:57;2.07;;;1.80;;
10882;SDS011;5494;51.796;10.952;2023-08-08T08:26:48;2.43;;;2.00;;
10882;SDS011;5494;51.796;10.952;2023-08-08T08:29:39;2.23;;;1.83;;
10882;SDS011;5494;51.796;10.952;2023-08-08T08:32:46;2.33;;;2.00;;
10882;SDS011;5494;51.796;10.952;2023-08-08T08:35:47;3.50;;;2.03;;
10882;SDS011;5494;51.796;10.952;2023-08-08T08:38:30;4.93;;;1.73;;
10882;SDS011;5494;51.796;10.952;2023-08-08T08:41:08;3.37;;;1.67;;
10882;SDS011;5494;51.796;10.952;2023-08-08T08:43:58;2.37;;;1.60;;
10882;SDS011;5494;51.796;10.952;2023-08-08T08:46:47;2.20;;;1.60;;
10882;SDS011;5494;51.796;10.952;2023-08-08T08:49:34;3.33;;;2.07;;
10882;SDS011;5494;51.796;10.952;2023-08-08T08:52:30;2.40;;;2.10;;
10882;SDS011;5494;51.796;10.952;2023-08-08T08:55:09;3.10;;;1.60;;
10882;SDS011;5494;51.796;10.952;2023-08-08T08:57:50;2.93;;;1.60;;
10882;SDS011;5494;51.796;10.952;2023-08-08T09:00:38;3.37;;;1.97;;
10882;SDS011;5494;51.796;10.952;2023-08-08T09:03:14;2.37;;;1.70;;
10882;SDS011;5494;51.796;10.952;2023-08-08T09:05:55;3.60;;;1.80;;
10882;SDS011;5494;51.796;10.952;2023-08-08T09:08:35;3.73;;;1.67;;
10882;SDS011;5494;51.796;10.952;2023-08-08T09:11:28;2.30;;;1.63;;
10882;SDS011;5494;51.796;10.952;2023-08-08T09:14:31;3.17;;;1.80;;
10882;SDS011;5494;51.796;10.952;2023-08-08T09:17:11;4.20;;;1.87;;
10882;SDS011;5494;51.796;10.952;2023-08-08T09:20:00;3.63;;;2.00;;
10882;SDS011;5494;51.796;10.952;2023-08-08T09:22:44;3.00;;;1.60;;
10882;SDS011;5494;51.796;10.952;2023-08-08T09:25:21;4.70;;;2.20;;
10882;SDS011;5494;51.796;10.952;2023-08-08T09:28:02;3.27;;;1.70;;
10882;SDS011;5494;51.796;10.952;2023-08-08T09:30:50;3.30;;;1.97;;
10882;SDS011;5494;51.796;10.952;2023-08-08T09:33:33;2.60;;;1.60;;
10882;SDS011;5494;51.796;10.952;2023-08-08T09:36:08;2.97;;;1.80;;
10882;SDS011;5494;51.796;10.952;2023-08-08T09:39:04;3.83;;;1.90;;
10882;SDS011;5494;51.796;10.952;2023-08-08T09:42:06;3.40;;;1.93;;
10882;SDS011;5494;51.796;10.952;2023-08-08T09:44:50;2.67;;;1.53;;
10882;SDS011;5494;51.796;10.952;2023-08-08T09:47:27;4.23;;;2.33;;
10882;SDS011;5494;51.796;10.952;2023-08-08T09:50:36;2.23;;;1.70;;
10882;SDS011;5494;51.796;10.952;2023-08-08T09:53:20;3.17;;;1.77;;
10882;SDS011;5494;51.796;10.952;2023-08-08T09:56:02;3.87;;;1.90;;
10882;SDS011;5494;51.796;10.952;2023-08-08T09:58:53;3.20;;;1.97;;
10882;SDS011;5494;51.796;10.952;2023-08-08T10:01:45;4.50;;;2.00;;
10882;SDS011;5494;51.796;10.952;2023-08-08T10:04:48;4.60;;;2.37;;
10882;SDS011;5494;51.796;10.952;2023-08-08T10:07:51;3.77;;;2.27;;
10882;SDS011;5494;51.796;10.952;2023-08-08T10:10:41;5.20;;;2.20;;
10882;SDS011;5494;51.796;10.952;2023-08-08T10:13:21;2.63;;;1.70;;
10882;SDS011;5494;51.796;10.952;2023-08-08T10:16:03;3.47;;;2.30;;
10882;SDS011;5494;51.796;10.952;2023-08-08T10:32:21;2.93;;;1.87;;
10882;SDS011;5494;51.796;10.952;2023-08-08T10:34:59;2.20;;;2.00;;
10882;SDS011;5494;51.796;10.952;2023-08-08T10:37:51;2.07;;;1.80;;
10882;SDS011;5494;51.796;10.952;2023-08-08T10:40:32;5.03;;;1.97;;
10882;SDS011;5494;51.796;10.952;2023-08-08T10:43:24;5.13;;;2.37;;
10882;SDS011;5494;51.796;10.952;2023-08-08T10:46:10;2.30;;;1.93;;
10882;SDS011;5494;51.796;10.952;2023-08-08T10:49:04;3.80;;;2.00;;
10882;SDS011;5494;51.796;10.952;2023-08-08T10:51:51;2.97;;;1.93;;
10882;SDS011;5494;51.796;10.952;2023-08-08T10:54:56;3.13;;;2.30;;
10882;SDS011;5494;51.796;10.952;2023-08-08T10:57:38;3.33;;;2.20;;
10882;SDS011;5494;51.796;10.952;2023-08-08T11:00:31;4.03;;;2.43;;
10882;SDS011;5494;51.796;10.952;2023-08-08T11:03:13;2.60;;;2.20;;
10882;SDS011;5494;51.796;10.952;2023-08-08T11:06:16;4.43;;;2.40;;
10882;SDS011;5494;51.796;10.952;2023-08-08T11:08:51;4.53;;;2.20;;
10882;SDS011;5494;51.796;10.952;2023-08-08T11:11:46;5.17;;;2.37;;
10882;SDS011;5494;51.796;10.952;2023-08-08T11:14:31;2.67;;;2.00;;
10882;SDS011;5494;51.796;10.952;2023-08-08T11:20:14;2.57;;;2.23;;
10882;SDS011;5494;51.796;10.952;2023-08-08T11:23:11;3.57;;;2.23;;
10882;SDS011;5494;51.796;10.952;2023-08-08T11:25:48;5.90;;;2.93;;
10882;SDS011;5494;51.796;10.952;2023-08-08T11:28:27;3.60;;;2.73;;
10882;SDS011;5494;51.796;10.952;2023-08-08T11:31:08;4.37;;;2.47;;
10882;SDS011;5494;51.796;10.952;2023-08-08T11:33:52;2.30;;;2.10;;
10882;SDS011;5494;51.796;10.952;2023-08-08T11:36:33;3.47;;;2.47;;
10882;SDS011;5494;51.796;10.952;2023-08-08T11:39:35;5.43;;;2.40;;
10882;SDS011;5494;51.796;10.952;2023-08-08T11:42:49;4.07;;;2.80;;
10882;SDS011;5494;51.796;10.952;2023-08-08T11:45:50;4.90;;;3.33;;
10882;SDS011;5494;51.796;10.952;2023-08-08T11:48:42;4.30;;;3.00;;
10882;SDS011;5494;51.796;10.952;2023-08-08T11:51:40;4.50;;;3.40;;
10882;SDS011;5494;51.796;10.952;2023-08-08T11:54:30;7.10;;;3.40;;
10882;SDS011;5494;51.796;10.952;2023-08-08T11:57:31;3.77;;;3.00;;
10882;SDS011;5494;51.796;10.952;2023-08-08T12:00:44;4.00;;;2.80;;
10882;SDS011;5494;51.796;10.952;2023-08-08T12:03:13;4.07;;;2.73;;
10882;SDS011;5494;51.796;10.952;2023-08-08T12:05:45;3.17;;;2.27;;
10882;SDS011;5494;51.796;10.952;2023-08-08T12:08:16;2.53;;;2.30;;
10882;SDS011;5494;51.796;10.952;2023-08-08T12:10:48;3.10;;;2.80;;
10882;SDS011;5494;51.796;10.952;2023-08-08T12:13:20;3.77;;;2.40;;
10882;SDS011;5494;51.796;10.952;2023-08-08T12:15:49;4.23;;;2.40;;
10882;SDS011;5494;51.796;10.952;2023-08-08T12:18:19;2.60;;;2.37;;
10882;SDS011;5494;51.796;10.952;2023-08-08T12:20:47;3.43;;;2.23;;
10882;SDS011;5494;51.796;10.952;2023-08-08T12:23:16;3.40;;;2.13;;
10882;SDS011;5494;51.796;10.952;2023-08-08T12:25:44;3.03;;;2.10;;
10882;SDS011;5494;51.796;10.952;2023-08-08T12:28:14;2.73;;;2.03;;
10882;SDS011;5494;51.796;10.952;2023-08-08T12:30:43;4.67;;;2.37;;
10882;SDS011;5494;51.796;10.952;2023-08-08T12:33:11;4.03;;;2.00;;
10882;SDS011;5494;51.796;10.952;2023-08-08T12:35:39;3.67;;;2.37;;
10882;SDS011;5494;51.796;10.952;2023-08-08T12:38:07;4.03;;;2.10;;
10882;SDS011;5494;51.796;10.952;2023-08-08T12:40:36;4.53;;;2.30;;
10882;SDS011;5494;51.796;10.952;2023-08-08T12:43:04;2.37;;;2.13;;
10882;SDS011;5494;51.796;10.952;2023-08-08T12:45:34;4.47;;;2.90;;
10882;SDS011;5494;51.796;10.952;2023-08-08T12:48:02;3.50;;;2.90;;
10882;SDS011;5494;51.796;10.952;2023-08-08T12:50:32;3.80;;;2.40;;
10882;SDS011;5494;51.796;10.952;2023-08-08T12:53:00;3.10;;;2.47;;
10882;SDS011;5494;51.796;10.952;2023-08-08T12:55:28;4.73;;;2.50;;
10882;SDS011;5494;51.796;10.952;2023-08-08T12:57:56;4.97;;;2.53;;
10882;SDS011;5494;51.796;10.952;2023-08-08T13:00:24;5.07;;;2.27;;
10882;SDS011;5494;51.796;10.952;2023-08-08T13:02:54;3.83;;;2.57;;
10882;SDS011;5494;51.796;10.952;2023-08-08T13:05:22;2.80;;;2.60;;
10882;SDS011;5494;51.796;10.952;2023-08-08T13:07:50;4.80;;;3.20;;
10882;SDS011;5494;51.796;10.952;2023-08-08T13:10:19;3.10;;;2.80;;
10882;SDS011;5494;51.796;10.952;2023-08-08T13:12:47;3.00;;;2.70;;
10882;SDS011;5494;51.796;10.952;2023-08-08T13:15:15;4.13;;;2.93;;
10882;SDS011;5494;51.796;10.952;2023-08-08T13:17:44;4.53;;;2.80;;
10882;SDS011;5494;51.796;10.952;2023-08-08T13:20:13;4.43;;;3.10;;
10882;SDS011;5494;51.796;10.952;2023-08-08T13:22:42;3.57;;;2.90;;
10882;SDS011;5494;51.796;10.952;2023-08-08T13:25:10;5.57;;;2.90;;
10882;SDS011;5494;51.796;10.952;2023-08-08T13:27:38;4.30;;;3.33;;
10882;SDS011;5494;51.796;10.952;2023-08-08T13:30:06;3.20;;;2.83;;
10882;SDS011;5494;51.796;10.952;2023-08-08T13:32:35;4.13;;;2.47;;
10882;SDS011;5494;51.796;10.952;2023-08-08T13:35:05;4.57;;;2.97;;
10882;SDS011;5494;51.796;10.952;2023-08-08T13:37:35;4.40;;;2.50;;
10882;SDS011;5494;51.796;10.952;2023-08-08T13:40:03;3.53;;;2.47;;
10882;SDS011;5494;51.796;10.952;2023-08-08T13:42:33;4.90;;;2.70;;
10882;SDS011;5494;51.796;10.952;2023-08-08T13:45:01;3.13;;;2.30;;
10882;SDS011;5494;51.796;10.952;2023-08-08T13:47:29;4.00;;;2.50;;
10882;SDS011;5494;51.796;10.952;2023-08-08T13:49:57;2.23;;;2.03;;
10882;SDS011;5494;51.796;10.952;2023-08-08T13:52:25;3.07;;;2.40;;
10882;SDS011;5494;51.796;10.952;2023-08-08T13:54:56;3.30;;;2.37;;
10882;SDS011;5494;51.796;10.952;2023-08-08T13:57:24;3.70;;;2.50;;
10882;SDS011;5494;51.796;10.952;2023-08-08T13:59:52;2.83;;;2.37;;
10882;SDS011;5494;51.796;10.952;2023-08-08T14:02:20;4.00;;;2.53;;
10882;SDS011;5494;51.796;10.952;2023-08-08T14:04:48;3.67;;;2.23;;
10882;SDS011;5494;51.796;10.952;2023-08-08T14:07:18;5.87;;;2.37;;
10882;SDS011;5494;51.796;10.952;2023-08-08T14:09:47;5.57;;;2.10;;
10882;SDS011;5494;51.796;10.952;2023-08-08T14:12:17;3.43;;;1.90;;
10882;SDS011;5494;51.796;10.952;2023-08-08T14:14:45;2.93;;;1.93;;
10882;SDS011;5494;51.796;10.952;2023-08-08T14:17:13;3.63;;;1.90;;
10882;SDS011;5494;51.796;10.952;2023-08-08T14:19:41;2.43;;;1.60;;
10882;SDS011;5494;51.796;10.952;2023-08-08T14:22:09;3.50;;;1.80;;
10882;SDS011;5494;51.796;10.952;2023-08-08T14:24:38;2.27;;;1.57;;
10882;SDS011;5494;51.796;10.952;2023-08-08T14:27:06;2.53;;;1.70;;
10882;SDS011;5494;51.796;10.952;2023-08-08T14:29:35;3.07;;;1.60;;
10882;SDS011;5494;51.796;10.952;2023-08-08T14:32:04;2.13;;;1.47;;
10882;SDS011;5494;51.796;10.952;2023-08-08T14:34:34;4.03;;;1.47;;
10882;SDS011;5494;51.796;10.952;2023-08-08T14:37:04;2.67;;;1.53;;
10882;SDS011;5494;51.796;10.952;2023-08-08T14:39:33;2.77;;;1.67;;
10882;SDS011;5494;51.796;10.952;2023-08-08T14:42:01;2.77;;;1.60;;
10882;SDS011;5494;51.796;10.952;2023-08-08T14:44:30;4.50;;;1.47;;
10882;SDS011;5494;51.796;10.952;2023-08-08T14:46:59;1.47;;;1.30;;
10882;SDS011;5494;51.796;10.952;2023-08-08T14:49:28;2.40;;;1.53;;
10882;SDS011;5494;51.796;10.952;2023-08-08T14:51:56;3.30;;;1.70;;
10882;SDS011;5494;51.796;10.952;2023-08-08T14:54:25;3.47;;;1.40;;
10882;SDS011;5494;51.796;10.952;2023-08-08T14:56:53;3.47;;;1.70;;
10882;SDS011;5494;51.796;10.952;2023-08-08T14:59:22;3.33;;;1.80;;
10882;SDS011;5494;51.796;10.952;2023-08-08T15:01:50;2.93;;;1.50;;
10882;SDS011;5494;51.796;10.952;2023-08-08T15:04:19;3.60;;;1.63;;
10882;SDS011;5494;51.796;10.952;2023-08-08T15:06:47;2.20;;;1.33;;
10882;SDS011;5494;51.796;10.952;2023-08-08T15:09:15;4.37;;;1.57;;
10882;SDS011;5494;51.796;10.952;2023-08-08T15:11:44;2.10;;;1.70;;
10882;SDS011;5494;51.796;10.952;2023-08-08T15:14:12;2.87;;;1.67;;
10882;SDS011;5494;51.796;10.952;2023-08-08T15:16:40;2.67;;;1.67;;
10882;SDS011;5494;51.796;10.952;2023-08-08T15:19:08;1.60;;;1.50;;
10882;SDS011;5494;51.796;10.952;2023-08-08T15:21:38;2.73;;;1.60;;
10882;SDS011;5494;51.796;10.952;2023-08-08T15:24:06;3.33;;;1.70;;
10882;SDS011;5494;51.796;10.952;2023-08-08T15:26:36;1.80;;;1.50;;
10882;SDS011;5494;51.796;10.952;2023-08-08T15:29:04;2.50;;;1.63;;
10882;SDS011;5494;51.796;10.952;2023-08-08T15:31:32;1.80;;;1.60;;
10882;SDS011;5494;51.796;10.952;2023-08-08T15:34:00;1.97;;;1.57;;
10882;SDS011;5494;51.796;10.952;2023-08-08T15:36:29;1.90;;;1.47;;
10882;SDS011;5494;51.796;10.952;2023-08-08T15:38:59;3.17;;;1.80;;
10882;SDS011;5494;51.796;10.952;2023-08-08T15:41:27;3.60;;;1.63;;
10882;SDS011;5494;51.796;10.952;2023-08-08T15:43:55;3.00;;;1.70;;
10882;SDS011;5494;51.796;10.952;2023-08-08T15:46:24;3.77;;;1.73;;
10882;SDS011;5494;51.796;10.952;2023-08-08T15:48:52;4.37;;;1.50;;
10882;SDS011;5494;51.796;10.952;2023-08-08T15:51:20;3.50;;;1.70;;
10882;SDS011;5494;51.796;10.952;2023-08-08T15:53:48;4.33;;;1.90;;
10882;SDS011;5494;51.796;10.952;2023-08-08T15:56:17;3.23;;;1.60;;
10882;SDS011;5494;51.796;10.952;2023-08-08T15:58:46;1.50;;;1.40;;
10882;SDS011;5494;51.796;10.952;2023-08-08T16:01:14;2.20;;;1.70;;
10882;SDS011;5494;51.796;10.952;2023-08-08T16:03:43;2.70;;;1.53;;
10882;SDS011;5494;51.796;10.952;2023-08-08T16:06:11;3.87;;;1.90;;
10882;SDS011;5494;51.796;10.952;2023-08-08T16:08:39;2.90;;;1.40;;
10882;SDS011;5494;51.796;10.952;2023-08-08T16:11:07;3.67;;;2.17;;
10882;SDS011;5494;51.796;10.952;2023-08-08T16:13:39;3.27;;;1.80;;
10882;SDS011;5494;51.796;10.952;2023-08-08T16:16:07;3.50;;;1.70;;